Time;durP1;ratioP1;P1;durP2;ratioP2;P2;SDS_P1;SDS_P2;PMS_P1;PMS_P2;Temp;Humidity;BMP_temperature;BMP_pressure;BME280_temperature;BME280_humidity;BME280_pressure;Samples;Min_cycle;Max_cycle;Signal;HPM_P1;HPM_P2
2023/04/13 00:00:31;;;;;;;4.53;3.80;;;5.70;99.90;;;;;;4964108;28;20050;-85
2023/04/13 00:02:59;;;;;;;4.78;3.92;;;5.70;99.90;;;;;;4996757;28;20050;-85
2023/04/13 00:05:25;;;;;;;7.05;4.70;;;5.70;99.90;;;;;;4963497;28;20065;-85
2023/04/13 00:07:50;;;;;;;6.57;3.88;;;5.80;99.90;;;;;;5013983;28;20053;-86
2023/04/13 00:10:17;;;;;;;5.43;4.22;;;5.70;99.90;;;;;;5012928;28;20479;-85
2023/04/13 00:12:46;;;;;;;5.40;4.57;;;5.90;99.90;;;;;;5014609;28;20089;-84
2023/04/13 00:15:12;;;;;;;6.30;4.30;;;5.80;99.90;;;;;;4981107;28;20058;-88
2023/04/13 00:17:38;;;;;;;5.28;4.15;;;5.90;99.90;;;;;;4979704;28;20046;-86
2023/04/13 00:20:08;;;;;;;7.97;5.38;;;5.90;99.90;;;;;;4996158;28;20100;-84
2023/04/13 00:22:35;;;;;;;6.10;4.07;;;5.90;99.90;;;;;;4996099;28;20120;-85
2023/04/13 00:25:01;;;;;;;5.93;4.05;;;6.00;99.90;;;;;;4964059;28;20046;-85
2023/04/13 00:27:29;;;;;;;7.68;4.82;;;6.10;99.90;;;;;;4964488;28;20103;-85
2023/04/13 00:29:57;;;;;;;4.63;4.10;;;6.20;99.90;;;;;;4996014;28;20061;-87
2023/04/13 00:32:24;;;;;;;5.40;4.20;;;6.30;99.90;;;;;;4996114;28;20425;-85
2023/04/13 00:34:50;;;;;;;6.35;4.13;;;6.30;99.90;;;;;;4995819;28;20482;-86
2023/04/13 00:37:17;;;;;;;4.65;3.85;;;6.40;99.90;;;;;;4996206;28;20467;-86
2023/04/13 00:39:45;;;;;;;7.20;3.90;;;6.40;99.90;;;;;;4979821;28;20100;-86
2023/04/13 00:42:10;;;;;;;7.45;4.18;;;6.40;99.90;;;;;;4979946;28;20061;-86
2023/04/13 00:44:36;;;;;;;7.18;4.15;;;6.40;99.90;;;;;;4964088;28;20062;-85
2023/04/13 00:47:03;;;;;;;4.57;4.00;;;6.50;99.90;;;;;;4980092;28;20053;-83
2023/04/13 00:49:30;;;;;;;6.00;4.10;;;6.50;99.90;;;;;;4963999;28;20505;-84
2023/04/13 00:51:55;;;;;;;6.07;4.45;;;6.50;99.90;;;;;;4963948;28;20054;-84
2023/04/13 00:54:21;;;;;;;5.65;4.20;;;6.60;99.90;;;;;;4963655;28;20072;-85
2023/04/13 00:56:47;;;;;;;7.68;4.30;;;6.60;99.90;;;;;;4963699;28;20121;-83
2023/04/13 00:59:13;;;;;;;5.75;4.30;;;6.60;99.90;;;;;;4963520;28;20324;-84
2023/04/13 01:01:45;;;;;;;5.88;4.05;;;6.60;99.90;;;;;;4979674;28;20045;-85
2023/04/13 01:04:17;;;;;;;5.82;4.53;;;6.60;99.90;;;;;;4979052;28;20056;-83
2023/04/13 01:06:52;;;;;;;5.30;4.20;;;6.60;99.90;;;;;;4995335;28;20077;-84
2023/04/13 01:09:33;;;;;;;7.00;5.25;;;6.50;99.90;;;;;;4963823;28;20054;-84
2023/04/13 01:12:20;;;;;;;6.82;5.15;;;6.50;99.90;;;;;;4964334;28;20367;-83
2023/04/13 01:15:05;;;;;;;9.07;4.72;;;6.40;99.90;;;;;;4994335;28;20058;-85
2023/04/13 01:17:32;;;;;;;5.88;4.32;;;6.40;99.90;;;;;;4978199;28;20062;-85
2023/04/13 01:20:09;;;;;;;5.28;4.03;;;6.30;99.90;;;;;;4961372;28;20050;-85
2023/04/13 01:22:35;;;;;;;4.07;3.50;;;6.30;99.90;;;;;;5011307;28;20046;-85
2023/04/13 01:25:24;;;;;;;5.15;3.80;;;6.30;99.90;;;;;;4960755;28;20049;-86
2023/04/13 01:28:01;;;;;;;4.05;3.20;;;6.30;99.90;;;;;;4992388;28;20169;-86
2023/04/13 01:30:27;;;;;;;6.07;3.45;;;6.30;99.90;;;;;;4960399;28;20050;-85
2023/04/13 01:32:53;;;;;;;4.32;3.33;;;6.20;99.90;;;;;;4960474;28;20115;-85
2023/04/13 01:35:22;;;;;;;4.93;2.85;;;6.20;99.90;;;;;;4976342;28;20050;-85
2023/04/13 01:37:51;;;;;;;5.05;3.00;;;6.20;99.90;;;;;;4993115;28;20053;-86
2023/04/13 01:40:20;;;;;;;3.78;2.78;;;6.10;99.90;;;;;;4992920;28;20081;-85
2023/04/13 01:42:46;;;;;;;7.50;2.97;;;6.10;99.90;;;;;;4992471;28;20141;-85
2023/04/13 01:45:16;;;;;;;3.53;2.63;;;6.10;99.90;;;;;;4976352;28;20557;-84
2023/04/13 01:48:01;;;;;;;4.22;2.90;;;6.10;99.90;;;;;;4960301;28;20057;-85
2023/04/13 01:50:28;;;;;;;5.43;3.15;;;6.10;99.90;;;;;;4992595;28;20057;-85
2023/04/13 01:52:56;;;;;;;3.10;2.60;;;6.00;99.90;;;;;;4960747;28;20053;-86
2023/04/13 01:55:22;;;;;;;3.28;2.97;;;6.10;99.90;;;;;;4976096;28;20057;-85
2023/04/13 01:57:51;;;;;;;4.55;2.78;;;6.10;99.90;;;;;;4959708;28;20800;-85
2023/04/13 02:00:19;;;;;;;3.42;2.45;;;6.10;99.90;;;;;;4960135;28;20065;-86
2023/04/13 02:02:45;;;;;;;4.88;2.78;;;6.10;99.90;;;;;;4992014;28;20052;-86
2023/04/13 02:05:11;;;;;;;6.63;2.80;;;6.00;99.90;;;;;;4991627;28;20057;-86
2023/04/13 02:07:38;;;;;;;2.65;2.40;;;6.00;99.90;;;;;;4992051;28;20050;-86
2023/04/13 02:10:05;;;;;;;6.47;2.70;;;6.00;99.90;;;;;;4959920;28;20499;-85
2023/04/13 02:12:32;;;;;;;7.15;2.65;;;6.00;99.90;;;;;;4976069;28;20060;-87
2023/04/13 02:14:58;;;;;;;4.90;2.80;;;6.00;99.90;;;;;;4975824;28;20117;-86
2023/04/13 02:17:24;;;;;;;3.40;2.50;;;6.00;99.90;;;;;;4975947;28;20069;-87
2023/04/13 02:19:50;;;;;;;4.40;2.55;;;6.00;99.90;;;;;;4995846;28;20049;-87
2023/04/13 02:22:15;;;;;;;4.10;2.63;;;5.90;99.90;;;;;;4963667;28;20054;-85
2023/04/13 02:24:41;;;;;;;6.65;2.70;;;5.90;99.90;;;;;;4979717;28;20152;-85
2023/04/13 02:27:07;;;;;;;7.28;2.88;;;6.00;99.90;;;;;;4996058;28;20057;-87
2023/04/13 02:29:33;;;;;;;5.60;2.65;;;6.00;99.90;;;;;;4979594;28;20119;-87
2023/04/13 02:31:58;;;;;;;3.08;2.60;;;6.00;99.90;;;;;;5012186;28;20046;-86
2023/04/13 02:34:25;;;;;;;6.32;2.70;;;6.20;99.90;;;;;;4995694;28;20486;-86
2023/04/13 02:36:50;;;;;;;6.22;2.67;;;5.90;99.90;;;;;;4979408;28;20477;-87
2023/04/13 02:39:17;;;;;;;7.40;3.50;;;5.90;99.90;;;;;;4979605;28;20054;-87
2023/04/13 02:41:42;;;;;;;5.60;2.70;;;5.90;99.90;;;;;;4980394;28;20486;-86
2023/04/13 02:44:09;;;;;;;4.82;2.55;;;5.90;99.90;;;;;;5002031;28;20042;-87
2023/04/13 02:46:34;;;;;;;4.03;2.80;;;5.90;99.90;;;;;;5015998;28;20073;-87
2023/04/13 02:49:00;;;;;;;7.15;3.28;;;5.90;99.90;;;;;;4999156;28;20045;-88
2023/04/13 02:51:26;;;;;;;4.20;2.90;;;5.90;99.90;;;;;;4999199;28;20057;-88
2023/04/13 02:53:54;;;;;;;4.50;2.88;;;5.90;99.90;;;;;;5014732;28;20059;-88
2023/04/13 02:56:21;;;;;;;5.90;3.40;;;5.90;99.90;;;;;;4982416;28;20057;-89
2023/04/13 02:58:47;;;;;;;4.65;3.30;;;6.10;99.90;;;;;;5015161;28;20053;-86
2023/04/13 03:01:12;;;;;;;4.30;3.20;;;5.90;99.90;;;;;;5015988;28;20049;-87
2023/04/13 03:03:40;;;;;;;6.65;4.93;;;5.90;99.90;;;;;;5015641;28;20136;-86
2023/04/13 03:06:06;;;;;;;3.88;2.90;;;5.90;99.90;;;;;;5011849;28;20073;-86
2023/04/13 03:08:32;;;;;;;3.90;2.92;;;5.90;99.90;;;;;;5012440;28;20061;-87
2023/04/13 03:10:58;;;;;;;5.25;3.10;;;5.90;99.90;;;;;;4995298;28;20622;-87
2023/04/13 03:13:23;;;;;;;3.60;2.85;;;5.90;99.90;;;;;;5011447;28;20387;-87
2023/04/13 03:15:49;;;;;;;3.95;2.83;;;5.90;99.90;;;;;;5011299;28;20536;-87
2023/04/13 03:18:15;;;;;;;6.30;3.08;;;5.90;99.90;;;;;;5011048;28;20493;-88
2023/04/13 03:20:42;;;;;;;6.47;3.60;;;5.90;99.90;;;;;;4995351;28;20092;-87
2023/04/13 03:23:08;;;;;;;5.53;3.22;;;5.90;99.90;;;;;;4995172;28;20490;-86
2023/04/13 03:25:34;;;;;;;5.00;2.95;;;5.90;99.90;;;;;;4979104;28;20506;-86
2023/04/13 03:28:00;;;;;;;5.00;2.90;;;6.20;99.90;;;;;;5011752;28;20085;-86
2023/04/13 03:30:25;;;;;;;3.97;2.58;;;6.80;99.90;;;;;;4979120;28;20102;-86
2023/04/13 03:32:51;;;;;;;4.38;2.55;;;6.00;99.90;;;;;;5011363;28;20088;-86
2023/04/13 03:35:17;;;;;;;3.70;2.58;;;6.00;99.90;;;;;;5011661;28;20053;-87
2023/04/13 03:37:43;;;;;;;5.82;2.47;;;6.10;99.90;;;;;;5011945;28;20056;-87
2023/04/13 03:40:09;;;;;;;5.53;3.05;;;6.00;99.90;;;;;;4995424;28;20486;-87
2023/04/13 03:42:36;;;;;;;4.65;2.80;;;6.00;99.90;;;;;;4979429;28;20083;-86
2023/04/13 03:45:02;;;;;;;4.65;2.70;;;6.00;99.90;;;;;;4992509;28;20058;-85
2023/04/13 03:47:28;;;;;;;3.75;2.55;;;6.00;99.90;;;;;;4976069;28;20061;-86
2023/04/13 03:49:54;;;;;;;5.25;2.58;;;6.10;99.90;;;;;;4991928;28;20046;-86
2023/04/13 03:52:19;;;;;;;4.32;2.70;;;6.10;99.90;;;;;;4991844;28;20133;-86
2023/04/13 03:54:45;;;;;;;3.95;2.45;;;6.10;99.90;;;;;;4991561;28;20054;-86
2023/04/13 03:57:11;;;;;;;4.15;2.30;;;6.10;99.90;;;;;;4992513;28;20050;-86
2023/04/13 03:59:37;;;;;;;4.45;2.70;;;6.10;99.90;;;;;;4976275;28;20509;-86
2023/04/13 04:02:02;;;;;;;5.05;2.90;;;6.10;99.90;;;;;;4992035;28;20050;-86
2023/04/13 04:04:28;;;;;;;4.60;2.67;;;6.10;99.90;;;;;;4993307;28;20053;-85
2023/04/13 04:06:54;;;;;;;3.78;2.42;;;6.10;99.90;;;;;;4978943;28;20550;-87
2023/04/13 04:09:20;;;;;;;3.63;2.55;;;6.10;99.90;;;;;;4995169;28;20053;-86
2023/04/13 04:11:46;;;;;;;3.20;2.78;;;6.10;99.90;;;;;;4995894;28;20343;-85
2023/04/13 04:14:11;;;;;;;5.15;2.70;;;6.10;99.90;;;;;;4995676;28;20169;-87
2023/04/13 04:16:37;;;;;;;4.63;2.67;;;6.10;99.90;;;;;;5011860;28;20111;-86
2023/04/13 04:19:02;;;;;;;3.75;2.47;;;6.20;99.90;;;;;;4995009;28;20050;-86
2023/04/13 04:21:32;;;;;;;3.03;2.30;;;6.10;99.90;;;;;;4995259;28;20437;-85
2023/04/13 04:23:59;;;;;;;3.08;2.30;;;6.20;99.90;;;;;;4978360;28;20057;-84
2023/04/13 04:26:25;;;;;;;4.28;2.70;;;6.10;99.90;;;;;;4994663;28;20038;-85
2023/04/13 04:28:51;;;;;;;2.88;2.47;;;6.20;99.90;;;;;;4978598;28;20111;-87
2023/04/13 04:31:16;;;;;;;3.00;2.38;;;6.20;99.90;;;;;;5002358;28;20053;-86
2023/04/13 04:33:43;;;;;;;2.53;2.22;;;6.20;99.90;;;;;;5014519;28;20157;-86
2023/04/13 04:36:12;;;;;;;3.15;2.45;;;6.20;99.90;;;;;;5014112;28;20045;-88
2023/04/13 04:38:39;;;;;;;7.40;2.65;;;6.10;99.90;;;;;;5013869;28;20103;-87
2023/04/13 04:41:05;;;;;;;4.60;2.90;;;6.10;99.90;;;;;;4997241;28;20081;-86
2023/04/13 04:43:31;;;;;;;2.95;2.65;;;6.10;99.90;;;;;;4997249;28;20088;-85
2023/04/13 04:45:56;;;;;;;5.22;3.30;;;6.10;99.90;;;;;;5013963;28;20045;-86
2023/04/13 04:48:25;;;;;;;3.80;3.13;;;6.10;99.90;;;;;;4997344;28;20057;-84
2023/04/13 04:50:52;;;;;;;4.07;3.22;;;6.10;99.90;;;;;;4997926;28;20045;-85
2023/04/13 04:53:17;;;;;;;4.80;3.72;;;6.10;99.90;;;;;;5013276;28;20508;-85
2023/04/13 04:55:45;;;;;;;4.22;3.70;;;6.00;99.90;;;;;;5013813;28;20053;-85
2023/04/13 04:58:10;;;;;;;6.60;3.92;;;6.10;99.90;;;;;;4997262;28;20041;-85
2023/04/13 05:00:36;;;;;;;6.53;4.47;;;6.10;99.90;;;;;;4996714;28;20115;-85
2023/04/13 05:03:02;;;;;;;6.15;4.43;;;6.10;99.90;;;;;;5013006;28;20398;-86
2023/04/13 05:05:29;;;;;;;6.15;4.35;;;6.10;99.90;;;;;;5012243;28;20103;-87
2023/04/13 05:07:55;;;;;;;7.05;5.07;;;6.10;99.90;;;;;;5030362;28;20179;-86
2023/04/13 05:10:23;;;;;;;6.65;4.85;;;6.10;99.90;;;;;;5012447;28;20060;-86
2023/04/13 05:12:49;;;;;;;8.40;6.90;;;6.10;99.90;;;;;;5013556;28;20053;-86
2023/04/13 05:15:15;;;;;;;7.78;5.53;;;6.10;99.90;;;;;;4997585;28;20049;-86
2023/04/13 05:17:41;;;;;;;6.65;5.68;;;6.10;99.90;;;;;;4981800;28;20045;-85
2023/04/13 05:20:07;;;;;;;7.75;5.60;;;6.20;99.90;;;;;;5031256;28;20045;-85
2023/04/13 05:22:33;;;;;;;9.38;5.75;;;6.20;99.90;;;;;;5013522;28;20049;-85
2023/04/13 05:24:59;;;;;;;10.38;5.60;;;6.40;99.90;;;;;;5013546;28;20052;-85
2023/04/13 05:27:24;;;;;;;8.23;5.72;;;6.70;99.90;;;;;;5031273;28;20061;-86
2023/04/13 05:29:50;;;;;;;7.63;5.30;;;6.80;99.90;;;;;;4997643;28;20053;-86
2023/04/13 05:32:16;;;;;;;7.13;5.03;;;6.90;99.90;;;;;;5013074;28;20215;-85
2023/04/13 05:34:42;;;;;;;6.60;4.70;;;6.70;99.90;;;;;;5014246;28;20037;-86
2023/04/13 05:37:09;;;;;;;7.28;4.72;;;7.20;99.90;;;;;;4997383;28;20099;-86
2023/04/13 05:39:35;;;;;;;5.82;4.28;;;7.70;99.90;;;;;;5013371;28;20059;-86
2023/04/13 05:42:00;;;;;;;6.50;4.10;;;8.40;99.90;;;;;;5013622;28;20409;-86
2023/04/13 05:44:26;;;;;;;4.63;3.55;;;8.80;99.90;;;;;;4996984;28;20093;-87
2023/04/13 05:46:52;;;;;;;4.43;3.50;;;9.10;99.90;;;;;;4996938;28;20092;-85
2023/04/13 05:49:18;;;;;;;3.47;3.08;;;9.60;99.90;;;;;;4997585;28;20056;-85
2023/04/13 05:51:44;;;;;;;3.83;2.92;;;9.60;99.90;;;;;;5029487;28;20053;-85
2023/04/13 05:54:10;;;;;;;5.68;2.95;;;10.00;99.90;;;;;;4980289;28;20057;-84
2023/04/13 05:56:35;;;;;;;2.88;2.67;;;9.70;99.90;;;;;;5013957;28;20053;-86
2023/04/13 05:59:03;;;;;;;4.32;2.83;;;9.70;99.90;;;;;;4997022;28;20410;-85
2023/04/13 06:01:29;;;;;;;4.07;2.78;;;10.20;99.90;;;;;;4997305;28;20049;-86
2023/04/13 06:03:55;;;;;;;4.22;2.90;;;10.20;99.90;;;;;;5013569;28;20099;-86
2023/04/13 06:06:21;;;;;;;3.90;2.53;;;10.50;99.90;;;;;;4977620;28;20093;-86
2023/04/13 06:08:47;;;;;;;3.50;2.63;;;10.20;99.90;;;;;;4994248;28;20064;-85
2023/04/13 06:11:13;;;;;;;6.13;2.65;;;10.30;99.90;;;;;;5010126;28;20500;-86
2023/04/13 06:13:40;;;;;;;3.88;2.60;;;10.70;99.90;;;;;;4993832;28;20375;-86
2023/04/13 06:16:09;;;;;;;4.82;2.60;;;10.80;99.90;;;;;;5026546;28;20061;-85
2023/04/13 06:18:36;;;;;;;4.22;2.22;;;10.60;99.90;;;;;;4993798;28;20557;-85
2023/04/13 06:21:02;;;;;;;3.10;2.40;;;10.60;99.90;;;;;;5010041;28;20072;-86
2023/04/13 06:23:28;;;;;;;5.95;2.67;;;10.30;99.90;;;;;;4993814;28;20103;-85
2023/04/13 06:25:53;;;;;;;4.22;2.20;;;9.80;99.90;;;;;;5009511;28;20445;-85
2023/04/13 06:28:19;;;;;;;7.32;2.60;;;9.10;99.90;;;;;;4993627;28;20050;-84
2023/04/13 06:30:45;;;;;;;3.80;2.58;;;8.80;99.90;;;;;;5010026;28;20046;-84
2023/04/13 06:33:11;;;;;;;4.90;2.72;;;8.50;99.90;;;;;;4993332;28;20157;-84
2023/04/13 06:35:37;;;;;;;5.55;3.33;;;8.30;99.90;;;;;;4980259;28;20556;-87
2023/04/13 06:38:03;;;;;;;6.22;3.50;;;8.10;99.90;;;;;;4985825;28;20054;-88
2023/04/13 06:40:32;;;;;;;5.47;3.30;;;8.10;99.90;;;;;;4973157;28;20065;-86
2023/04/13 06:42:57;;;;;;;5.28;3.88;;;8.50;99.90;;;;;;4979431;28;20047;-87
2023/04/13 06:45:23;;;;;;;4.20;3.58;;;8.40;99.90;;;;;;4985918;28;20729;-88
2023/04/13 06:47:50;;;;;;;7.10;3.65;;;9.40;99.90;;;;;;4962133;28;20102;-87
2023/04/13 06:50:16;;;;;;;6.05;3.70;;;10.30;99.90;;;;;;4949897;28;20254;-88
2023/04/13 06:52:43;;;;;;;4.50;3.35;;;10.80;99.90;;;;;;4978093;28;20051;-85
2023/04/13 06:55:08;;;;;;;8.02;3.42;;;10.70;99.90;;;;;;4978082;28;20490;-87
2023/04/13 06:57:34;;;;;;;5.45;3.42;;;10.50;99.90;;;;;;4959872;28;20053;-87
2023/04/13 07:00:00;;;;;;;4.43;3.17;;;10.50;99.90;;;;;;4977866;28;20553;-87
2023/04/13 07:02:26;;;;;;;5.93;3.65;;;10.20;99.90;;;;;;4961758;28;20055;-88
2023/04/13 07:04:51;;;;;;;4.85;3.55;;;10.20;99.90;;;;;;4979613;28;20122;-88
2023/04/13 07:07:17;;;;;;;6.65;3.50;;;9.70;99.90;;;;;;4980540;28;20086;-88
2023/04/13 07:09:43;;;;;;;6.28;3.55;;;9.50;99.90;;;;;;4987775;28;20046;-87
2023/04/13 07:12:08;;;;;;;5.68;3.83;;;9.90;99.90;;;;;;4977812;28;20109;-88
2023/04/13 07:14:35;;;;;;;4.60;3.50;;;10.50;99.90;;;;;;4960735;28;20038;-91
2023/04/13 07:17:01;;;;;;;6.97;3.38;;;10.40;99.90;;;;;;4982351;28;20046;-89
2023/04/13 07:19:29;;;;;;;6.15;3.42;;;10.20;99.90;;;;;;4981360;28;20042;-91
2023/04/13 07:21:54;;;;;;;7.25;3.50;;;10.50;99.90;;;;;;4965545;28;20105;-88
2023/04/13 07:24:20;;;;;;;8.25;3.50;;;10.50;99.90;;;;;;4984401;28;20050;-90
2023/04/13 07:26:46;;;;;;;5.75;2.85;;;10.60;99.90;;;;;;4982360;28;20204;-90
2023/04/13 07:29:15;;;;;;;5.10;3.10;;;10.30;99.90;;;;;;4977129;28;20046;-88
2023/04/13 07:31:42;;;;;;;5.15;2.65;;;9.90;99.90;;;;;;4940596;28;20054;-87
2023/04/13 07:34:08;;;;;;;4.60;3.00;;;9.60;99.90;;;;;;4963856;28;20050;-88
2023/04/13 07:36:33;;;;;;;7.55;3.20;;;9.50;99.90;;;;;;4965389;28;20065;-89
2023/04/13 07:39:00;;;;;;;4.65;3.00;;;9.30;99.90;;;;;;4964548;28;20042;-87
2023/04/13 07:41:26;;;;;;;6.13;2.70;;;9.50;99.90;;;;;;4977517;28;20050;-90
2023/04/13 07:43:51;;;;;;;6.05;3.25;;;9.50;99.90;;;;;;4977118;28;20042;-90
2023/04/13 07:46:19;;;;;;;5.38;2.40;;;9.40;99.90;;;;;;4980219;28;20113;-89
2023/04/13 07:48:45;;;;;;;5.43;2.85;;;10.10;99.90;;;;;;4981762;28;20050;-85
2023/04/13 07:51:17;;;;;;;7.20;2.75;;;10.30;99.90;;;;;;4963910;28;20637;-87
2023/04/13 07:53:43;;;;;;;6.57;2.50;;;11.20;99.90;;;;;;4956726;28;20093;-88
2023/04/13 07:56:09;;;;;;;5.28;2.15;;;11.20;99.90;;;;;;4965651;28;20078;-89
2023/04/13 07:58:34;;;;;;;4.55;1.95;;;11.80;99.90;;;;;;4989386;28;20538;-84
2023/04/13 08:01:01;;;;;;;4.70;2.25;;;12.20;99.90;;;;;;4978038;28;20046;-87
2023/04/13 08:03:30;;;;;;;4.97;1.90;;;12.20;99.90;;;;;;4954819;28;20051;-85
2023/04/13 08:05:56;;;;;;;4.03;2.15;;;11.80;99.90;;;;;;4963293;28;20399;-86
2023/04/13 08:08:22;;;;;;;5.20;2.30;;;11.40;99.90;;;;;;4982825;28;20495;-84
2023/04/13 08:10:47;;;;;;;6.68;2.40;;;11.40;99.90;;;;;;4968446;28;20192;-87
2023/04/13 08:13:14;;;;;;;8.40;2.47;;;10.90;99.90;;;;;;4982931;28;20062;-85
2023/04/13 08:15:40;;;;;;;5.85;2.47;;;10.40;99.90;;;;;;4983300;28;20058;-86
2023/04/13 08:18:06;;;;;;;4.45;2.67;;;9.80;99.90;;;;;;4988269;28;20046;-85
2023/04/13 08:20:32;;;;;;;5.00;2.63;;;10.10;99.90;;;;;;4980399;28;20069;-87
2023/04/13 08:22:59;;;;;;;5.55;3.33;;;10.40;99.90;;;;;;4978912;28;20097;-87
2023/04/13 08:25:25;;;;;;;6.43;2.80;;;10.40;99.90;;;;;;4975179;28;20137;-87
2023/04/13 08:27:51;;;;;;;6.97;2.72;;;10.30;99.90;;;;;;4981120;28;20582;-85
2023/04/13 08:30:17;;;;;;;4.70;2.20;;;10.40;99.90;;;;;;4981459;28;20111;-86
2023/04/13 08:32:42;;;;;;;5.82;2.40;;;10.20;99.90;;;;;;4979484;28;20406;-85
2023/04/13 08:35:09;;;;;;;5.65;2.40;;;10.50;99.90;;;;;;4979638;28;20038;-86
2023/04/13 08:37:35;;;;;;;5.18;2.55;;;10.50;99.90;;;;;;4981022;28;20043;-89
2023/04/13 08:40:01;;;;;;;4.93;2.70;;;10.10;99.90;;;;;;4963874;28;20050;-87
2023/04/13 08:42:27;;;;;;;3.58;2.35;;;9.80;99.90;;;;;;4985216;28;20066;-88
2023/04/13 08:45:02;;;;;;;4.28;2.40;;;9.50;99.90;;;;;;4957958;28;20034;-87
2023/04/13 08:47:28;;;;;;;5.53;2.30;;;9.20;99.90;;;;;;4973710;28;20061;-84
2023/04/13 08:49:57;;;;;;;4.63;2.65;;;9.20;99.90;;;;;;4990723;28;20046;-89
2023/04/13 08:52:24;;;;;;;4.25;2.90;;;9.00;99.90;;;;;;4991217;28;20080;-87
2023/04/13 08:54:50;;;;;;;4.95;2.55;;;9.10;99.90;;;;;;4970848;28;20046;-88
2023/04/13 08:57:15;;;;;;;5.00;2.58;;;9.00;99.90;;;;;;4974641;28;20590;-88
2023/04/13 08:59:41;;;;;;;5.38;2.85;;;9.10;99.90;;;;;;4956042;28;20050;-91
2023/04/13 09:02:07;;;;;;;5.63;2.13;;;9.20;99.90;;;;;;4964076;28;20483;-87
2023/04/13 09:04:34;;;;;;;3.17;1.95;;;9.30;99.90;;;;;;4980478;28;20046;-91
2023/04/13 09:07:00;;;;;;;3.90;1.48;;;10.10;99.90;;;;;;4962647;28;20077;-92
2023/04/13 09:09:26;;;;;;;1.63;1.20;;;10.80;99.90;;;;;;4981425;28;20058;-89
2023/04/13 09:11:51;;;;;;;3.75;1.30;;;10.60;99.90;;;;;;4973515;28;20050;-91
2023/04/13 09:14:20;;;;;;;2.05;1.10;;;10.30;99.90;;;;;;4972185;28;20046;-93
2023/04/13 09:16:46;;;;;;;0.98;0.80;;;10.00;99.90;;;;;;4973097;28;20073;-89
2023/04/13 09:19:12;;;;;;;2.13;1.00;;;10.00;99.90;;;;;;4988317;28;20138;-89
2023/04/13 09:21:39;;;;;;;1.58;0.95;;;9.50;99.90;;;;;;4985636;28;20050;-91
2023/04/13 09:24:05;;;;;;;2.13;0.90;;;9.00;99.90;;;;;;4970361;28;20105;-91
2023/04/13 09:26:47;;;;;;;0.82;0.60;;;9.10;99.90;;;;;;4988196;28;20050;-88
2023/04/13 09:29:15;;;;;;;0.77;0.70;;;9.00;99.90;;;;;;4968015;28;20069;-90
2023/04/13 09:31:41;;;;;;;1.30;0.70;;;9.10;99.90;;;;;;4963660;28;20138;-91
2023/04/13 09:34:09;;;;;;;1.17;0.60;;;8.90;99.90;;;;;;4980086;28;20157;-89
2023/04/13 09:36:35;;;;;;;2.33;0.70;;;9.20;99.90;;;;;;4970727;28;20082;-92
2023/04/13 09:39:01;;;;;;;1.80;0.85;;;10.20;99.90;;;;;;4946832;28;20055;-87
2023/04/13 09:41:34;;;;;;;1.35;0.60;;;11.00;99.90;;;;;;4972624;28;20050;-88
2023/04/13 09:44:01;;;;;;;0.68;0.55;;;11.70;99.90;;;;;;4972743;28;20091;-87
2023/04/13 09:46:27;;;;;;;1.48;0.80;;;10.90;99.90;;;;;;4940872;28;20179;-86
2023/04/13 09:49:02;;;;;;;2.70;1.13;;;10.60;99.90;;;;;;4972514;28;20104;-86
2023/04/13 09:51:35;;;;;;;5.80;1.33;;;9.90;99.90;;;;;;4956904;28;20057;-88
2023/04/13 09:54:01;;;;;;;1.50;0.80;;;9.50;99.90;;;;;;4989537;28;20131;-87
2023/04/13 09:56:27;;;;;;;2.28;1.20;;;9.60;99.90;;;;;;4972518;28;20588;-87
2023/04/13 09:58:53;;;;;;;1.73;1.00;;;10.10;99.90;;;;;;4988727;28;20494;-86
2023/04/13 10:01:19;;;;;;;1.73;1.05;;;11.00;99.90;;;;;;4972499;28;20053;-87
2023/04/13 10:03:45;;;;;;;2.00;0.93;;;11.60;99.90;;;;;;4989891;28;20396;-87
2023/04/13 10:06:11;;;;;;;3.55;0.93;;;12.20;99.90;;;;;;4997662;28;20058;-88
2023/04/13 10:08:38;;;;;;;2.63;1.20;;;11.50;99.90;;;;;;5008973;28;20089;-86
2023/04/13 10:11:06;;;;;;;4.28;1.45;;;11.30;99.90;;;;;;4992279;28;20049;-86
2023/04/13 10:13:36;;;;;;;4.57;1.33;;;11.10;99.90;;;;;;4992724;28;20057;-86
2023/04/13 10:16:17;;;;;;;3.88;1.55;;;11.00;99.90;;;;;;4995353;28;20474;-87
2023/04/13 10:18:59;;;;;;;5.53;1.60;;;10.80;99.90;;;;;;5009379;28;20045;-87
2023/04/13 10:21:38;;;;;;;3.05;1.20;;;10.50;99.90;;;;;;4992938;28;20132;-86
2023/04/13 10:24:04;;;;;;;2.65;1.00;;;10.00;99.90;;;;;;5007883;28;20054;-87
2023/04/13 10:26:34;;;;;;;3.17;1.02;;;9.80;99.90;;;;;;5008457;28;20097;-87
2023/04/13 10:29:00;;;;;;;4.55;1.17;;;9.30;99.90;;;;;;5008633;28;20061;-87
2023/04/13 10:31:36;;;;;;;2.15;0.80;;;9.10;99.90;;;;;;4992381;28;20050;-88
2023/04/13 10:34:03;;;;;;;2.67;1.08;;;9.00;99.90;;;;;;5008635;28;20099;-87
2023/04/13 10:36:42;;;;;;;3.80;1.10;;;9.10;99.90;;;;;;5008178;28;20382;-86
2023/04/13 10:39:09;;;;;;;3.92;1.15;;;9.30;99.90;;;;;;4993096;28;20068;-86
2023/04/13 10:41:37;;;;;;;6.70;3.00;;;9.50;99.90;;;;;;5012099;28;20046;-87
2023/04/13 10:44:05;;;;;;;5.82;1.75;;;9.50;99.90;;;;;;5012057;28;20505;-87
2023/04/13 10:46:33;;;;;;;4.32;1.80;;;9.30;99.90;;;;;;4979522;28;20103;-87
2023/04/13 10:48:59;;;;;;;4.63;1.83;;;9.20;99.90;;;;;;4996030;28;20076;-87
2023/04/13 10:51:41;;;;;;;3.03;0.95;;;9.00;99.90;;;;;;4995658;28;20053;-85
2023/04/13 10:54:07;;;;;;;3.40;1.00;;;8.70;99.90;;;;;;4994324;28;20501;-88
2023/04/13 10:56:33;;;;;;;4.30;1.20;;;8.70;99.90;;;;;;5011582;28;20590;-88
2023/04/13 10:58:59;;;;;;;2.92;0.90;;;8.50;99.90;;;;;;5011745;28;20069;-87
2023/04/13 11:01:25;;;;;;;1.65;0.70;;;8.50;99.90;;;;;;5011533;28;20085;-87
2023/04/13 11:03:51;;;;;;;3.90;1.92;;;8.60;99.90;;;;;;4994794;28;20446;-87
2023/04/13 11:06:16;;;;;;;4.13;1.17;;;8.70;99.90;;;;;;5011064;28;20149;-87
2023/04/13 11:08:42;;;;;;;2.75;1.10;;;9.10;99.90;;;;;;4995400;28;20060;-87
2023/04/13 11:11:09;;;;;;;3.17;1.20;;;9.40;99.90;;;;;;5011502;28;20045;-88
2023/04/13 11:13:42;;;;;;;3.70;1.30;;;9.50;99.90;;;;;;4995374;28;20728;-86
2023/04/13 11:16:08;;;;;;;4.88;1.40;;;9.30;99.90;;;;;;4995631;28;20046;-87
2023/04/13 11:18:33;;;;;;;2.17;1.20;;;9.60;99.90;;;;;;5013804;28;20050;-87
2023/04/13 11:21:01;;;;;;;7.25;1.40;;;9.80;99.90;;;;;;5012470;28;20092;-86
2023/04/13 11:23:27;;;;;;;3.88;1.90;;;10.00;99.90;;;;;;5012579;28;20069;-86
2023/04/13 11:25:54;;;;;;;4.18;1.80;;;10.10;99.90;;;;;;4978171;28;20046;-87
2023/04/13 11:28:24;;;;;;;5.43;1.85;;;10.30;99.90;;;;;;4994819;28;20445;-87
2023/04/13 11:30:55;;;;;;;3.92;1.70;;;10.60;99.90;;;;;;4995002;28;20120;-87
2023/04/13 11:33:28;;;;;;;6.05;1.70;;;11.00;99.90;;;;;;4978628;28;20150;-86
2023/04/13 11:35:55;;;;;;;7.35;1.80;;;11.10;99.90;;;;;;4995076;28;20132;-86
2023/04/13 11:38:20;;;;;;;4.40;1.67;;;11.00;99.90;;;;;;4994749;28;20088;-86
2023/04/13 11:40:47;;;;;;;5.90;1.90;;;10.90;99.90;;;;;;5010372;28;20636;-87
2023/04/13 11:43:16;;;;;;;8.43;2.20;;;10.90;99.90;;;;;;4994733;28;20104;-87
2023/04/13 11:45:42;;;;;;;7.97;1.77;;;10.90;99.90;;;;;;4994764;28;20402;-87
2023/04/13 11:48:08;;;;;;;5.97;1.75;;;10.70;99.90;;;;;;4994429;28;20136;-85
2023/04/13 11:50:35;;;;;;;5.75;1.70;;;10.70;99.90;;;;;;5009283;28;20042;-87
2023/04/13 11:53:01;;;;;;;10.32;1.83;;;10.50;99.90;;;;;;4978550;28;20814;-87
2023/04/13 11:55:27;;;;;;;7.38;2.22;;;10.70;99.90;;;;;;4994399;28;20144;-87
2023/04/13 11:57:52;;;;;;;13.90;2.50;;;10.80;99.90;;;;;;4994767;28;20132;-87
2023/04/13 12:00:23;;;;;;;9.45;2.55;;;11.10;99.90;;;;;;4994180;28;20048;-87
2023/04/13 12:02:52;;;;;;;8.52;2.38;;;11.50;99.90;;;;;;4994444;28;20093;-87
2023/04/13 12:05:28;;;;;;;6.55;1.95;;;11.60;99.90;;;;;;4994430;28;20050;-86
2023/04/13 12:07:54;;;;;;;9.48;2.00;;;11.50;99.90;;;;;;4994674;28;20053;-87
2023/04/13 12:10:24;;;;;;;6.18;1.90;;;11.30;99.90;;;;;;5010427;28;20038;-88
2023/04/13 12:12:59;;;;;;;6.50;1.48;;;11.10;99.90;;;;;;5010528;28;20092;-88
2023/04/13 12:15:27;;;;;;;6.25;1.80;;;11.10;99.90;;;;;;4994611;28;20057;-87
2023/04/13 12:17:57;;;;;;;8.10;1.98;;;10.90;99.90;;;;;;4994646;28;20062;-87
2023/04/13 12:20:33;;;;;;;5.90;1.63;;;10.90;99.90;;;;;;4993953;28;20084;-85
2023/04/13 12:22:59;;;;;;;7.75;1.73;;;11.00;99.90;;;;;;4994109;28;20042;-87
2023/04/13 12:25:24;;;;;;;4.93;1.27;;;11.10;99.90;;;;;;4994082;28;20045;-88
2023/04/13 12:27:51;;;;;;;5.57;1.30;;;11.50;99.90;;;;;;5011833;28;20467;-87
2023/04/13 12:30:17;;;;;;;7.53;1.42;;;11.40;99.90;;;;;;4994368;28;20050;-87
2023/04/13 12:32:47;;;;;;;7.35;1.90;;;11.50;99.90;;;;;;5008284;28;20125;-87
2023/04/13 12:35:13;;;;;;;4.85;1.75;;;11.40;99.90;;;;;;5005115;28;20371;-87
2023/04/13 12:37:42;;;;;;;9.88;1.55;;;11.30;99.90;;;;;;4965005;28;20100;-89
2023/04/13 12:40:12;;;;;;;4.25;1.70;;;11.00;99.90;;;;;;5005274;28;20077;-87
2023/04/13 12:42:41;;;;;;;5.88;1.60;;;10.90;99.90;;;;;;4976737;28;20077;-88
2023/04/13 12:45:07;;;;;;;6.90;2.00;;;10.80;99.90;;;;;;4960230;28;20871;-92
2023/04/13 12:47:33;;;;;;;5.63;1.70;;;10.90;99.90;;;;;;5006982;28;21897;-89
2023/04/13 12:49:58;;;;;;;8.05;2.00;;;10.90;99.90;;;;;;4985818;28;20133;-87
2023/04/13 12:52:27;;;;;;;6.03;1.60;;;10.80;99.90;;;;;;4992471;28;20134;-93